createdAt,value
2023-04-21T00:01:32.292Z,13.15
2023-04-21T00:04:01.336Z,13.15
2023-04-21T00:06:31.454Z,13.13
2023-04-21T00:08:58.995Z,13.05
2023-04-21T00:11:26.820Z,12.92
2023-04-21T00:13:54.640Z,12.86
2023-04-21T00:16:22.595Z,12.89
2023-04-21T00:18:49.994Z,12.83
2023-04-21T00:21:18.630Z,12.85
2023-04-21T00:23:47.460Z,12.83
2023-04-21T00:26:15.279Z,12.86
2023-04-21T00:28:45.555Z,12.89
2023-04-21T00:31:12.911Z,12.95
2023-04-21T00:33:40.918Z,12.97
2023-04-21T00:36:08.494Z,13.05
2023-04-21T00:38:36.580Z,13.20
2023-04-21T00:41:04.163Z,13.20
2023-04-21T00:43:31.626Z,13.09
2023-04-21T00:46:00.074Z,13.19
2023-04-21T00:48:27.490Z,13.19
2023-04-21T00:50:54.942Z,13.29
2023-04-21T00:53:22.474Z,13.30
2023-04-21T00:55:50.463Z,13.43
2023-04-21T00:58:18.497Z,13.41
2023-04-21T01:00:46.846Z,13.44
2023-04-21T01:03:14.466Z,13.51
2023-04-21T01:05:43.005Z,13.70
2023-04-21T01:08:13.306Z,13.69
2023-04-21T01:10:40.753Z,13.77
2023-04-21T01:13:08.082Z,13.87
2023-04-21T01:15:35.732Z,13.85
2023-04-21T01:18:03.281Z,13.93
2023-04-21T01:20:30.652Z,13.93
2023-04-21T01:22:59.084Z,13.83
2023-04-21T01:25:28.360Z,13.90
2023-04-21T01:27:56.530Z,13.91
2023-04-21T01:30:23.844Z,13.85
2023-04-21T01:32:51.896Z,13.99
2023-04-21T01:35:19.458Z,13.95
2023-04-21T01:37:46.846Z,13.87
2023-04-21T01:40:14.348Z,13.89
2023-04-21T01:42:43.467Z,13.95
2023-04-21T01:45:13.024Z,13.83
2023-04-21T01:47:40.603Z,13.92
2023-04-21T01:50:08.660Z,13.91
2023-04-21T01:52:36.218Z,13.81
2023-04-21T01:55:04.242Z,13.76
2023-04-21T01:57:31.683Z,13.87
2023-04-21T01:59:59.050Z,13.85
2023-04-21T02:02:28.104Z,13.96
2023-04-21T02:04:55.619Z,13.87
2023-04-21T02:07:23.084Z,13.82
2023-04-21T02:09:50.472Z,13.81
2023-04-21T02:12:18.232Z,13.89
2023-04-21T02:14:48.185Z,13.92
2023-04-21T02:17:15.713Z,13.92
2023-04-21T02:19:43.404Z,13.88
2023-04-21T02:22:12.979Z,13.89
2023-04-21T02:24:41.145Z,13.94
2023-04-21T02:27:08.756Z,13.89
2023-04-21T02:29:36.134Z,13.96
2023-04-21T02:32:14.233Z,14.03
2023-04-21T02:34:51.381Z,14.07
2023-04-21T02:37:19.666Z,14.07
2023-04-21T02:39:47.449Z,13.96
2023-04-21T02:42:14.957Z,14.06
2023-04-21T02:44:43.088Z,14.10
2023-04-21T02:47:11.329Z,14.25
2023-04-21T02:49:42.315Z,14.41
2023-04-21T02:52:10.294Z,14.39
2023-04-21T02:54:37.583Z,14.28
2023-04-21T02:57:05.283Z,14.38
2023-04-21T02:59:33.726Z,14.30
2023-04-21T03:02:01.356Z,14.20
2023-04-21T03:04:30.194Z,14.29
2023-04-21T03:06:58.376Z,14.28
2023-04-21T03:09:26.418Z,14.39
2023-04-21T03:11:53.702Z,14.39
2023-04-21T03:14:21.346Z,14.39
2023-04-21T03:16:48.957Z,14.37
2023-04-21T03:19:16.540Z,14.43
2023-04-21T03:21:45.498Z,14.48
2023-04-21T03:24:12.757Z,14.38
2023-04-21T03:26:43.031Z,14.60
2023-04-21T03:29:10.527Z,14.50
2023-04-21T03:31:37.987Z,14.53
2023-04-21T03:34:05.460Z,14.48
2023-04-21T03:36:32.891Z,14.51
2023-04-21T03:39:12.753Z,14.35
2023-04-21T03:41:47.222Z,14.38
2023-04-21T03:44:14.930Z,14.35
2023-04-21T03:46:42.329Z,14.20
2023-04-21T03:49:10.201Z,14.11
2023-04-21T03:51:37.624Z,14.00
2023-04-21T03:54:04.988Z,13.94
2023-04-21T03:56:32.320Z,13.94
2023-04-21T03:59:00.904Z,13.87
2023-04-21T04:01:28.904Z,13.85
2023-04-21T04:03:56.779Z,13.74
2023-04-21T04:06:24.362Z,13.54
2023-04-21T04:08:51.667Z,13.50
2023-04-21T04:11:18.926Z,13.43
2023-04-21T04:13:46.236Z,13.44
2023-04-21T04:16:13.996Z,13.40
2023-04-21T04:18:41.293Z,13.38
2023-04-21T04:21:09.200Z,13.33
2023-04-21T04:23:36.718Z,13.36
2023-04-21T04:26:07.401Z,13.37
2023-04-21T04:28:35.010Z,13.48
2023-04-21T04:31:04.854Z,13.43
2023-04-21T04:33:32.322Z,13.49
2023-04-21T04:35:59.782Z,13.49
2023-04-21T04:38:28.431Z,13.61
2023-04-21T04:40:57.519Z,13.62
2023-04-21T04:43:25.597Z,13.75
2023-04-21T04:45:53.354Z,13.88
2023-04-21T04:48:20.787Z,13.92
2023-04-21T04:50:48.104Z,14.08
2023-04-21T04:53:15.911Z,14.30
2023-04-21T04:55:43.221Z,14.29
2023-04-21T04:58:11.376Z,14.35
2023-04-21T05:00:38.756Z,14.33
2023-04-21T05:03:07.266Z,14.28
2023-04-21T05:05:35.171Z,14.30
2023-04-21T05:08:02.876Z,14.50
2023-04-21T05:10:31.140Z,14.49
2023-04-21T05:12:58.495Z,14.45
2023-04-21T05:15:26.023Z,14.63
2023-04-21T05:17:53.416Z,14.74
2023-04-21T05:20:21.152Z,14.72
2023-04-21T05:22:49.431Z,14.80
2023-04-21T05:25:16.804Z,14.90
2023-04-21T05:27:44.114Z,15.02
2023-04-21T05:30:11.635Z,15.13
2023-04-21T05:32:39.021Z,15.23
2023-04-21T05:35:07.038Z,15.26
2023-04-21T05:37:34.332Z,15.13
2023-04-21T05:40:02.011Z,15.17
2023-04-21T05:42:29.359Z,15.28
2023-04-21T05:44:56.721Z,15.35
2023-04-21T05:47:24.422Z,15.35
2023-04-21T05:49:53.679Z,15.31
2023-04-21T05:52:23.964Z,15.42
2023-04-21T05:54:51.757Z,15.53
2023-04-21T05:57:19.080Z,15.73
2023-04-21T05:59:46.380Z,15.81
2023-04-21T06:02:14.165Z,16.10
2023-04-21T06:04:41.836Z,16.11
2023-04-21T06:07:10.551Z,16.04
2023-04-21T06:09:38.359Z,16.46
2023-04-21T06:12:06.622Z,16.91
2023-04-21T06:14:33.888Z,17.27
2023-04-21T06:17:01.627Z,17.68
2023-04-21T06:19:28.913Z,17.57
2023-04-21T06:21:57.283Z,17.42
2023-04-21T06:24:25.712Z,17.51
2023-04-21T06:26:53.747Z,17.56
2023-04-21T06:29:21.353Z,17.15
2023-04-21T06:31:48.724Z,17.25
2023-04-21T06:34:16.377Z,17.06
2023-04-21T06:36:43.778Z,16.86
2023-04-21T06:39:11.460Z,17.05
2023-04-21T06:41:39.259Z,17.22
2023-04-21T06:44:06.573Z,17.12
2023-04-21T06:46:34.981Z,17.17
2023-04-21T06:49:02.762Z,17.49
2023-04-21T06:51:30.694Z,17.68
2023-04-21T06:53:58.571Z,17.93
2023-04-21T06:56:29.597Z,18.17
2023-04-21T06:58:57.291Z,18.46
2023-04-21T07:01:25.542Z,18.71
2023-04-21T07:03:53.546Z,18.68
2023-04-21T07:06:21.002Z,18.61
2023-04-21T07:08:48.290Z,19.00
2023-04-21T07:11:16.057Z,19.14
2023-04-21T07:13:43.449Z,18.90
2023-04-21T07:16:10.955Z,18.72
2023-04-21T07:18:39.650Z,18.47
2023-04-21T07:21:07.010Z,18.21
2023-04-21T07:23:35.741Z,18.97
2023-04-21T07:26:03.297Z,19.22
2023-04-21T07:28:31.475Z,19.07
2023-04-21T07:31:00.951Z,19.22
2023-04-21T07:33:30.982Z,19.45
2023-04-21T07:35:59.090Z,19.48
2023-04-21T07:38:27.094Z,19.45
2023-04-21T07:40:54.942Z,19.49
2023-04-21T07:43:22.674Z,19.35
2023-04-21T07:45:52.390Z,19.07
2023-04-21T07:48:19.980Z,19.52
2023-04-21T07:50:47.433Z,19.79
2023-04-21T07:53:15.645Z,19.68
2023-04-21T07:55:42.893Z,19.76
2023-04-21T07:58:11.080Z,19.65
2023-04-21T08:00:41.782Z,19.39
2023-04-21T08:03:09.392Z,19.27
2023-04-21T08:05:40.966Z,19.35
2023-04-21T08:08:09.302Z,19.60
2023-04-21T08:10:36.819Z,19.99
2023-04-21T08:13:06.871Z,20.61
2023-04-21T08:15:35.055Z,20.86
2023-04-21T08:18:03.347Z,20.57
2023-04-21T08:20:31.300Z,20.29
2023-04-21T08:22:58.730Z,20.39
2023-04-21T08:25:26.668Z,20.54
2023-04-21T08:27:54.908Z,20.75
2023-04-21T08:30:22.287Z,21.07
2023-04-21T08:32:49.644Z,21.11
2023-04-21T08:35:17.437Z,21.84
2023-04-21T08:37:46.645Z,21.34
2023-04-21T08:40:14.195Z,20.54
2023-04-21T08:42:42.306Z,20.97
2023-04-21T08:45:09.941Z,21.10
2023-04-21T08:47:38.795Z,20.42
2023-04-21T08:50:07.915Z,20.59
2023-04-21T08:52:35.299Z,20.78
2023-04-21T08:55:03.096Z,20.10
2023-04-21T08:57:30.469Z,19.72
2023-04-21T08:59:58.171Z,19.96
2023-04-21T09:02:26.228Z,19.90
2023-04-21T09:04:59.998Z,19.97
2023-04-21T09:07:32.237Z,20.11
2023-04-21T09:10:03.337Z,19.79
2023-04-21T09:12:31.580Z,20.12
2023-04-21T09:15:00.939Z,19.87
2023-04-21T09:17:32.624Z,20.36
2023-04-21T09:20:20.520Z,20.46
2023-04-21T09:22:49.705Z,20.74
2023-04-21T09:25:19.993Z,21.27
2023-04-21T09:27:48.087Z,20.71
2023-04-21T09:30:19.361Z,20.54
2023-04-21T09:32:46.822Z,21.28
2023-04-21T09:35:15.260Z,20.96
2023-04-21T09:37:46.285Z,21.38
2023-04-21T09:40:15.347Z,21.54
2023-04-21T09:42:44.547Z,21.23
2023-04-21T09:47:50.630Z,21.64
2023-04-21T09:50:41.797Z,21.51
2023-04-21T09:53:12.301Z,22.06
2023-04-21T09:55:42.187Z,21.97
2023-04-21T09:58:10.342Z,21.55
2023-04-21T10:00:39.910Z,21.61
2023-04-21T10:03:11.549Z,21.58
2023-04-21T10:05:42.189Z,21.83
2023-04-21T10:08:11.723Z,22.61
2023-04-21T10:10:40.525Z,22.60
2023-04-21T10:13:12.900Z,23.84
2023-04-21T10:15:41.856Z,24.21
2023-04-21T10:18:16.677Z,24.28
2023-04-21T10:20:54.251Z,25.20
2023-04-21T10:23:27.931Z,25.04
2023-04-21T10:26:01.356Z,24.85
2023-04-21T10:28:48.968Z,25.69
2023-04-21T10:31:22.854Z,25.06
2023-04-21T10:34:08.389Z,26.11
2023-04-21T10:36:43.666Z,26.22
2023-04-21T10:39:15.768Z,25.64
2023-04-21T10:41:44.480Z,26.34
2023-04-21T10:44:13.445Z,26.38
2023-04-21T10:46:45.839Z,26.77
2023-04-21T10:49:21.805Z,26.16
2023-04-21T10:52:02.703Z,26.21
2023-04-21T10:54:36.521Z,27.05
2023-04-21T10:57:07.793Z,27.66
2023-04-21T10:59:36.063Z,28.02
2023-04-21T11:02:05.587Z,26.97
2023-04-21T11:04:33.842Z,27.06
2023-04-21T11:07:16.527Z,27.46
2023-04-21T11:09:44.745Z,26.43
2023-04-21T11:12:13.123Z,27.04
2023-04-21T11:14:42.121Z,26.95
2023-04-21T11:17:13.262Z,26.63
2023-04-21T11:19:41.345Z,27.48
2023-04-21T11:22:09.105Z,27.76
2023-04-21T11:24:36.589Z,28.49
2023-04-21T11:27:08.018Z,28.67
2023-04-21T11:29:35.733Z,28.93
2023-04-21T11:32:06.076Z,28.48
2023-04-21T11:34:33.571Z,27.90
2023-04-21T11:37:00.804Z,28.08
2023-04-21T11:39:28.141Z,28.76
2023-04-21T11:41:55.882Z,27.88
2023-04-21T11:44:36.819Z,28.35
2023-04-21T11:47:13.831Z,29.26
2023-04-21T11:49:45.379Z,29.08
2023-04-21T11:52:20.840Z,29.58
2023-04-21T11:54:48.346Z,29.87
2023-04-21T11:57:19.356Z,29.54
2023-04-21T11:59:48.025Z,28.76
2023-04-21T12:02:23.433Z,30.24
2023-04-21T12:04:58.149Z,28.65
2023-04-21T12:07:25.667Z,26.87
2023-04-21T12:09:53.738Z,29.18
2023-04-21T12:12:23.240Z,30.35
2023-04-21T12:14:51.801Z,29.90
2023-04-21T12:17:19.389Z,27.85
2023-04-21T12:19:47.326Z,27.16
2023-04-21T12:22:16.452Z,26.94
2023-04-21T12:24:44.117Z,26.85
2023-04-21T12:27:12.410Z,26.14
2023-04-21T12:29:41.366Z,26.17
2023-04-21T12:32:09.613Z,25.31
2023-04-21T12:34:37.007Z,23.60
2023-04-21T12:37:04.963Z,24.66
2023-04-21T12:39:32.488Z,24.93
2023-04-21T12:42:01.729Z,26.74
2023-04-21T12:44:29.373Z,25.90
2023-04-21T12:46:57.438Z,25.17
2023-04-21T12:49:25.767Z,24.17
2023-04-21T12:51:53.142Z,24.75
2023-04-21T12:54:20.940Z,25.37
2023-04-21T12:56:48.510Z,25.25
2023-04-21T12:59:15.776Z,27.26
2023-04-21T13:01:44.133Z,26.17
2023-04-21T13:04:11.923Z,25.53
2023-04-21T13:06:39.610Z,24.95
2023-04-21T13:09:07.665Z,24.56
2023-04-21T13:11:35.901Z,27.66
2023-04-21T13:14:04.295Z,29.43
2023-04-21T13:16:32.210Z,30.09
2023-04-21T13:18:59.958Z,31.08
2023-04-21T13:21:27.893Z,32.10
2023-04-21T13:23:57.389Z,33.96
2023-04-21T13:26:25.888Z,33.95
2023-04-21T13:28:53.235Z,33.83
2023-04-21T13:31:21.511Z,35.19
2023-04-21T13:33:48.984Z,34.52
2023-04-21T13:36:16.574Z,34.30
2023-04-21T13:38:43.976Z,34.42
2023-04-21T13:41:11.770Z,33.88
2023-04-21T13:43:39.437Z,33.03
2023-04-21T13:46:06.903Z,32.58
2023-04-21T13:48:34.364Z,34.31
2023-04-21T13:51:02.113Z,34.41
2023-04-21T13:53:29.804Z,33.26
2023-04-21T13:55:58.361Z,32.97
2023-04-21T13:58:26.761Z,29.16
2023-04-21T14:00:54.916Z,26.99
2023-04-21T14:03:22.717Z,26.11
2023-04-21T14:05:50.215Z,26.75
2023-04-21T14:08:17.886Z,26.23
2023-04-21T14:10:45.732Z,25.72
2023-04-21T14:13:26.918Z,25.73
2023-04-21T14:16:00.610Z,25.62
2023-04-21T14:18:28.429Z,24.94
2023-04-21T14:20:55.771Z,24.23
2023-04-21T14:23:23.657Z,24.27
2023-04-21T14:25:52.305Z,23.93
2023-04-21T14:28:20.382Z,23.18
2023-04-21T14:30:47.745Z,23.99
2023-04-21T14:33:15.432Z,24.23
2023-04-21T14:35:42.824Z,26.10
2023-04-21T14:38:10.140Z,28.54
2023-04-21T14:40:37.542Z,30.18
2023-04-21T14:43:04.820Z,31.79
2023-04-21T14:45:32.450Z,31.55
2023-04-21T14:48:00.372Z,33.88
2023-04-21T14:50:28.268Z,34.50
2023-04-21T14:52:55.989Z,34.22
2023-04-21T14:55:23.676Z,34.12
2023-04-21T14:57:52.328Z,35.89
2023-04-21T15:00:20.697Z,36.50
2023-04-21T15:02:48.230Z,36.87
2023-04-21T15:05:15.976Z,35.46
2023-04-21T15:07:43.345Z,35.20
2023-04-21T15:10:11.288Z,36.13
2023-04-21T15:12:41.949Z,37.34
2023-04-21T15:15:11.062Z,36.46
2023-04-21T15:17:38.996Z,37.56
2023-04-21T15:20:06.705Z,36.66
2023-04-21T15:22:33.960Z,35.79
2023-04-21T15:25:01.365Z,35.68
2023-04-21T15:27:29.142Z,34.10
2023-04-21T15:29:56.570Z,36.50
2023-04-21T15:32:24.574Z,35.87
2023-04-21T15:34:52.381Z,35.65
2023-04-21T15:37:23.495Z,35.32
2023-04-21T15:39:52.377Z,35.72
2023-04-21T15:42:20.373Z,36.38
2023-04-21T15:44:48.299Z,36.39
2023-04-21T15:47:17.051Z,37.00
2023-04-21T15:49:44.406Z,35.87
2023-04-21T15:52:12.315Z,34.00
2023-04-21T15:54:39.979Z,32.03
2023-04-21T15:57:07.534Z,31.56
2023-04-21T15:59:35.364Z,31.95
2023-04-21T16:02:03.822Z,31.82
2023-04-21T16:04:31.991Z,31.83
2023-04-21T16:06:59.357Z,31.85
2023-04-21T16:09:26.822Z,31.21
2023-04-21T16:11:54.346Z,32.29
2023-04-21T16:14:22.659Z,31.13
2023-04-21T16:16:50.557Z,30.33
2023-04-21T16:19:18.140Z,29.22
2023-04-21T16:21:45.533Z,27.71
2023-04-21T16:24:13.019Z,27.05
2023-04-21T16:26:40.937Z,26.92
2023-04-21T16:29:08.952Z,26.61
2023-04-21T16:31:36.454Z,25.87
2023-04-21T16:34:04.272Z,25.33
2023-04-21T16:36:33.064Z,25.12
2023-04-21T16:39:00.826Z,24.89
2023-04-21T16:41:30.418Z,24.89
2023-04-21T16:43:58.434Z,24.50
2023-04-21T16:46:25.739Z,23.85
2023-04-21T16:48:53.113Z,23.20
2023-04-21T16:51:21.040Z,23.16
2023-04-21T16:53:48.358Z,23.55
2023-04-21T16:56:16.103Z,23.20
2023-04-21T16:58:43.955Z,23.49
2023-04-21T17:01:11.802Z,23.19
2023-04-21T17:03:39.670Z,23.17
2023-04-21T17:06:10.791Z,22.84
2023-04-21T17:08:38.190Z,22.62
2023-04-21T17:11:05.992Z,22.34
2023-04-21T17:13:35.297Z,22.52
2023-04-21T17:16:03.500Z,22.15
2023-04-21T17:18:30.880Z,21.59
2023-04-21T17:20:58.560Z,21.56
2023-04-21T17:23:26.221Z,21.41
2023-04-21T17:25:54.007Z,21.16
2023-04-21T17:28:21.464Z,21.35
2023-04-21T17:30:48.670Z,20.82
2023-04-21T17:33:17.684Z,20.67
2023-04-21T17:35:59.876Z,20.61
2023-04-21T17:38:31.552Z,20.65
2023-04-21T17:40:59.836Z,20.79
2023-04-21T17:43:27.335Z,20.66
2023-04-21T17:45:55.147Z,20.13
2023-04-21T17:48:22.510Z,19.82
2023-04-21T17:50:50.576Z,19.80
2023-04-21T17:53:19.001Z,19.48
2023-04-21T17:55:46.442Z,19.18
2023-04-21T17:58:13.945Z,18.98
2023-04-21T18:00:41.396Z,19.17
2023-04-21T18:03:09.458Z,19.25
2023-04-21T18:05:36.820Z,19.39
2023-04-21T18:08:04.256Z,19.04
2023-04-21T18:10:31.996Z,18.85
2023-04-21T18:12:59.749Z,19.08
2023-04-21T18:15:27.178Z,19.07
2023-04-21T18:17:55.045Z,18.74
2023-04-21T18:20:23.201Z,18.94
2023-04-21T18:22:51.800Z,18.99
2023-04-21T18:25:30.767Z,19.04
2023-04-21T18:28:07.545Z,19.09
2023-04-21T18:30:34.930Z,19.02
2023-04-21T18:33:03.005Z,19.08
2023-04-21T18:35:31.990Z,18.92
2023-04-21T18:37:59.872Z,18.70
2023-04-21T18:40:27.709Z,18.53
2023-04-21T18:42:55.892Z,18.49
2023-04-21T18:45:23.251Z,18.58
2023-04-21T18:47:51.026Z,18.54
2023-04-21T18:50:19.125Z,18.55
2023-04-21T18:52:46.387Z,18.58
2023-04-21T18:55:14.255Z,18.50
2023-04-21T18:57:41.548Z,18.39
2023-04-21T19:00:09.992Z,18.32
2023-04-21T19:02:37.899Z,18.53
2023-04-21T19:05:06.248Z,18.50
2023-04-21T19:07:34.571Z,18.43
2023-04-21T19:10:02.258Z,18.36
2023-04-21T19:12:29.964Z,18.30
2023-04-21T19:14:57.466Z,18.38
2023-04-21T19:17:26.068Z,18.50
2023-04-21T19:19:54.062Z,18.33
2023-04-21T19:22:21.683Z,18.35
2023-04-21T19:24:48.973Z,18.28
2023-04-21T19:27:16.258Z,17.99
2023-04-21T19:29:44.079Z,18.04
2023-04-21T19:32:11.966Z,17.86
2023-04-21T19:34:39.845Z,17.94
2023-04-21T19:37:07.913Z,18.04
2023-04-21T19:39:35.538Z,18.10
2023-04-21T19:42:03.769Z,17.94
2023-04-21T19:44:31.935Z,18.02
2023-04-21T19:47:00.171Z,18.06
2023-04-21T19:49:27.857Z,18.16
2023-04-21T19:51:55.130Z,17.93
2023-04-21T19:54:22.838Z,18.03
2023-04-21T19:56:50.396Z,17.91
2023-04-21T19:59:18.073Z,17.71
2023-04-21T20:01:45.902Z,17.25
2023-04-21T20:04:13.503Z,17.27
2023-04-21T20:06:41.762Z,17.31
2023-04-21T20:09:10.454Z,17.31
2023-04-21T20:11:38.181Z,17.32
2023-04-21T20:14:05.650Z,17.24
2023-04-21T20:16:34.415Z,17.33
2023-04-21T20:19:02.423Z,17.29
2023-04-21T20:21:30.401Z,17.19
2023-04-21T20:23:57.700Z,17.37
2023-04-21T20:26:25.070Z,17.48
2023-04-21T20:28:52.950Z,17.35
2023-04-21T20:31:23.886Z,17.37
2023-04-21T20:33:51.535Z,17.38
2023-04-21T20:36:18.779Z,17.33
2023-04-21T20:38:46.601Z,17.10
2023-04-21T20:41:14.893Z,16.99
2023-04-21T20:43:42.645Z,17.08
2023-04-21T20:46:10.408Z,16.96
2023-04-21T20:48:38.091Z,17.01
2023-04-21T20:51:05.905Z,17.06
2023-04-21T20:53:33.556Z,17.16
2023-04-21T20:56:01.221Z,17.17
2023-04-21T20:58:28.472Z,17.12
2023-04-21T21:00:56.352Z,17.12
2023-04-21T21:03:24.257Z,17.08
2023-04-21T21:05:51.759Z,17.12
2023-04-21T21:08:19.490Z,16.96
2023-04-21T21:10:47.187Z,16.97
2023-04-21T21:13:14.606Z,17.04
2023-04-21T21:15:42.883Z,16.84
2023-04-21T21:18:10.227Z,16.50
2023-04-21T21:20:37.914Z,16.28
2023-04-21T21:23:05.966Z,16.19
2023-04-21T21:25:33.948Z,16.19
2023-04-21T21:28:01.374Z,16.05
2023-04-21T21:30:29.124Z,16.09
2023-04-21T21:32:56.533Z,16.11
2023-04-21T21:35:23.850Z,16.09
2023-04-21T21:37:52.115Z,16.07
2023-04-21T21:40:19.614Z,16.09
2023-04-21T21:42:47.005Z,15.92
2023-04-21T21:45:14.638Z,15.71
2023-04-21T21:47:45.413Z,15.70
2023-04-21T21:50:13.161Z,15.74
2023-04-21T21:52:40.762Z,15.84
2023-04-21T21:55:08.328Z,15.82
2023-04-21T21:57:36.985Z,15.87
2023-04-21T22:00:08.288Z,15.83
2023-04-21T22:02:35.990Z,15.87
2023-04-21T22:05:06.249Z,15.99
2023-04-21T22:07:35.486Z,16.19
2023-04-21T22:10:03.685Z,16.23
2023-04-21T22:12:32.238Z,16.33
2023-04-21T22:14:59.492Z,16.25
2023-04-21T22:17:27.810Z,16.16
2023-04-21T22:19:56.038Z,15.99
2023-04-21T22:22:23.826Z,16.05
2023-04-21T22:24:51.485Z,16.22
2023-04-21T22:27:18.780Z,16.12
2023-04-21T22:29:46.200Z,16.10
2023-04-21T22:32:13.506Z,16.19
2023-04-21T22:34:41.205Z,16.25
2023-04-21T22:37:09.481Z,16.14
2023-04-21T22:39:38.726Z,15.99
2023-04-21T22:42:07.073Z,15.80
2023-04-21T22:44:34.991Z,15.58
2023-04-21T22:47:04.321Z,15.51
2023-04-21T22:49:31.643Z,15.37
2023-04-21T22:51:58.973Z,15.20
2023-04-21T22:54:26.456Z,15.31
2023-04-21T22:56:54.347Z,15.36
2023-04-21T22:59:21.566Z,15.35
2023-04-21T23:01:49.911Z,15.42
2023-04-21T23:04:17.963Z,15.69
2023-04-21T23:06:45.818Z,15.74
2023-04-21T23:09:13.204Z,15.88
2023-04-21T23:11:40.604Z,15.80
2023-04-21T23:14:07.865Z,15.93
2023-04-21T23:16:35.315Z,15.94
2023-04-21T23:19:03.091Z,15.93
2023-04-21T23:21:31.724Z,15.93
2023-04-21T23:23:59.624Z,15.88
2023-04-21T23:26:27.345Z,15.82
2023-04-21T23:28:54.590Z,15.57
2023-04-21T23:31:21.969Z,15.34
2023-04-21T23:33:49.688Z,15.37
2023-04-21T23:36:17.405Z,15.32
2023-04-21T23:38:44.682Z,15.34
2023-04-21T23:41:12.136Z,15.19
2023-04-21T23:43:39.959Z,15.26
2023-04-21T23:46:08.116Z,15.25
2023-04-21T23:48:35.861Z,15.25
2023-04-21T23:51:03.270Z,15.33
2023-04-21T23:53:30.742Z,15.43
2023-04-21T23:55:58.210Z,15.46
2023-04-21T23:58:25.987Z,15.56
